createdAt,value
2018-06-29T00:00:41.565Z,20.00
2018-06-29T00:03:10.440Z,20.00
2018-06-29T00:05:39.471Z,20.00
2018-06-29T00:08:08.356Z,19.90
2018-06-29T00:10:37.220Z,18.10
2018-06-29T00:13:06.094Z,19.80
2018-06-29T00:15:35.217Z,19.80
2018-06-29T00:18:04.089Z,19.70
2018-06-29T00:20:33.652Z,19.70
2018-06-29T00:23:02.550Z,19.50
2018-06-29T00:25:31.403Z,19.60
2018-06-29T00:28:00.272Z,19.50
2018-06-29T00:30:29.147Z,19.40
2018-06-29T00:32:58.036Z,19.50
2018-06-29T00:35:26.895Z,19.50
2018-06-29T00:37:55.756Z,19.40
2018-06-29T00:40:24.621Z,19.40
2018-06-29T00:42:53.481Z,19.30
2018-06-29T00:45:22.370Z,19.30
2018-06-29T00:47:51.272Z,19.30
2018-06-29T00:50:20.119Z,19.20
2018-06-29T00:52:48.976Z,19.20
2018-06-29T00:55:17.852Z,19.30
2018-06-29T00:57:46.769Z,19.20
2018-06-29T01:00:15.645Z,19.10
2018-06-29T01:02:44.531Z,19.10
2018-06-29T01:05:13.392Z,19.10
2018-06-29T01:07:42.305Z,19.00
2018-06-29T01:10:11.152Z,19.00
2018-06-29T01:12:40.033Z,18.90
2018-06-29T01:15:08.908Z,18.90
2018-06-29T01:17:37.779Z,18.80
2018-06-29T01:20:06.641Z,18.60
2018-06-29T01:22:35.555Z,18.60
2018-06-29T01:25:04.379Z,18.60
2018-06-29T01:27:33.240Z,18.70
2018-06-29T01:30:02.114Z,18.50
2018-06-29T01:32:31.167Z,18.60
2018-06-29T01:35:00.045Z,18.60
2018-06-29T01:37:28.898Z,18.50
2018-06-29T01:39:57.791Z,18.50
2018-06-29T01:42:26.650Z,18.50
2018-06-29T01:44:56.165Z,18.40
2018-06-29T01:47:25.020Z,18.40
2018-06-29T01:49:53.893Z,18.40
2018-06-29T01:52:22.740Z,18.30
2018-06-29T01:54:51.601Z,18.30
2018-06-29T01:57:20.648Z,18.30
2018-06-29T01:59:49.615Z,18.20
2018-06-29T02:02:18.476Z,18.20
2018-06-29T02:04:47.336Z,18.20
2018-06-29T02:07:16.210Z,18.20
2018-06-29T02:09:45.108Z,18.20
2018-06-29T02:12:14.572Z,18.00
2018-06-29T02:14:43.469Z,18.10
2018-06-29T02:17:12.368Z,17.90
2018-06-29T02:19:41.344Z,17.80
2018-06-29T02:22:10.285Z,17.80
2018-06-29T02:24:39.165Z,17.80
2018-06-29T02:27:08.125Z,17.80
2018-06-29T02:29:37.000Z,17.90
2018-06-29T02:32:05.887Z,17.80
2018-06-29T02:34:34.809Z,17.70
2018-06-29T02:37:03.680Z,17.80
2018-06-29T02:39:32.569Z,17.70
2018-06-29T02:42:01.693Z,17.70
2018-06-29T02:44:30.572Z,17.70
2018-06-29T02:46:59.980Z,17.60
2018-06-29T02:49:28.855Z,17.70
2018-06-29T02:51:57.728Z,17.60
2018-06-29T02:54:26.622Z,17.60
2018-06-29T02:56:55.488Z,17.60
2018-06-29T02:59:24.367Z,17.60
2018-06-29T03:01:53.240Z,17.50
2018-06-29T03:04:22.124Z,17.40
2018-06-29T03:06:51.002Z,17.30
2018-06-29T03:09:19.871Z,17.30
2018-06-29T03:11:49.024Z,17.30
2018-06-29T03:14:17.850Z,17.20
2018-06-29T03:16:46.739Z,17.20
2018-06-29T03:19:15.603Z,17.10
2018-06-29T03:21:44.491Z,17.10
2018-06-29T03:24:13.372Z,17.10
2018-06-29T03:26:42.249Z,17.00
2018-06-29T03:29:11.135Z,16.90
2018-06-29T03:31:40.005Z,16.80
2018-06-29T03:34:08.908Z,16.80
2018-06-29T03:36:37.929Z,16.80
2018-06-29T03:39:07.881Z,16.80
2018-06-29T03:41:36.764Z,16.90
2018-06-29T03:44:05.671Z,16.70
2018-06-29T03:46:34.722Z,16.70
2018-06-29T03:49:03.593Z,16.70
2018-06-29T03:51:32.474Z,16.70
2018-06-29T03:54:01.333Z,16.70
2018-06-29T03:56:30.213Z,16.70
2018-06-29T03:58:59.112Z,16.70
2018-06-29T04:01:28.005Z,16.60
2018-06-29T04:03:57.676Z,16.60
2018-06-29T04:06:26.548Z,16.70
2018-06-29T04:08:55.423Z,16.70
2018-06-29T04:11:24.376Z,16.60
2018-06-29T04:13:53.256Z,16.80
2018-06-29T04:16:22.137Z,16.80
2018-06-29T04:18:51.040Z,16.80
2018-06-29T04:21:19.916Z,16.80
2018-06-29T04:23:49.451Z,16.80
2018-06-29T04:26:18.328Z,16.90
2018-06-29T04:28:47.197Z,16.80
2018-06-29T04:31:16.082Z,16.80
2018-06-29T04:33:45.001Z,16.80
2018-06-29T04:36:14.009Z,16.90
2018-06-29T04:38:42.884Z,16.90
2018-06-29T04:41:11.772Z,16.80
2018-06-29T04:43:40.656Z,16.90
2018-06-29T04:46:09.533Z,17.00
2018-06-29T04:48:38.536Z,16.90
2018-06-29T04:51:07.417Z,17.00
2018-06-29T04:53:36.286Z,17.10
2018-06-29T04:56:05.156Z,17.20
2018-06-29T04:58:34.176Z,17.20
2018-06-29T05:01:03.324Z,17.30
2018-06-29T05:03:32.120Z,17.40
2018-06-29T05:06:00.998Z,17.50
2018-06-29T05:08:29.864Z,17.60
2018-06-29T05:10:58.752Z,17.70
2018-06-29T05:13:27.680Z,17.80
2018-06-29T05:15:56.541Z,17.80
2018-06-29T05:18:25.403Z,17.90
2018-06-29T05:20:54.276Z,18.00
2018-06-29T05:23:23.140Z,18.00
2018-06-29T05:25:52.036Z,18.10
2018-06-29T05:28:20.934Z,18.00
2018-06-29T05:30:49.795Z,18.10
2018-06-29T05:33:18.921Z,18.10
2018-06-29T05:35:48.519Z,18.10
2018-06-29T05:38:17.416Z,18.30
2018-06-29T05:49:43.954Z,18.80
2018-06-29T05:52:13.913Z,18.80
2018-06-29T05:54:43.136Z,18.80
2018-06-29T05:57:12.011Z,18.90
2018-06-29T06:02:44.500Z,18.90
2018-06-29T06:14:23.723Z,19.30
2018-06-29T06:22:26.668Z,19.50
2018-06-29T06:24:55.540Z,19.70
2018-06-29T06:30:18.198Z,19.70
2018-06-29T15:32:39.174Z,36.60
2018-06-29T15:46:38.661Z,37.80
2018-06-29T15:49:09.194Z,37.80
2018-06-29T15:51:38.112Z,38.50
2018-06-29T15:54:08.853Z,38.90
2018-06-29T15:56:37.915Z,37.80
2018-06-29T15:59:10.703Z,37.20
2018-06-29T16:01:40.063Z,37.20
2018-06-29T16:04:09.274Z,36.30
2018-06-29T16:06:39.226Z,37.20
2018-06-29T16:09:09.907Z,38.30
2018-06-29T16:11:57.902Z,38.00
2018-06-29T16:14:27.107Z,37.40
2018-06-29T16:16:59.939Z,37.60
2018-06-29T16:19:29.001Z,37.60
2018-06-29T16:21:58.275Z,38.10
2018-06-29T16:24:27.743Z,38.60
2018-06-29T16:26:56.754Z,37.30
2018-06-29T16:29:25.806Z,35.80
2018-06-29T16:37:27.837Z,37.90
2018-06-29T16:39:56.840Z,38.10
2018-06-29T16:42:25.855Z,37.30
2018-06-29T16:44:56.681Z,36.80
2018-06-29T16:50:29.299Z,38.00
2018-06-29T16:56:14.682Z,38.00
2018-06-29T17:01:17.866Z,38.30
2018-06-29T17:03:46.861Z,36.70
2018-06-29T17:06:16.405Z,35.30
2018-06-29T17:08:45.341Z,34.20
2018-06-29T17:11:14.365Z,32.80
2018-06-29T17:20:00.415Z,30.70
2018-06-29T17:22:29.643Z,30.30
2018-06-29T17:24:59.280Z,30.20
2018-06-29T17:27:28.101Z,30.00
2018-06-29T17:29:57.378Z,29.80
2018-06-29T17:32:26.367Z,29.60
2018-06-29T17:34:55.345Z,29.30
2018-06-29T17:37:24.645Z,29.30
2018-06-29T17:39:53.789Z,29.10
2018-06-29T17:42:22.818Z,29.00
2018-06-29T17:44:51.791Z,28.90
2018-06-29T17:47:20.816Z,28.70
2018-06-29T17:49:55.276Z,28.50
2018-06-29T17:55:05.075Z,28.40
2018-06-29T17:57:34.033Z,28.30
2018-06-29T18:00:02.959Z,28.30
2018-06-29T18:02:32.633Z,28.20
2018-06-29T18:05:01.528Z,28.20
2018-06-29T18:07:30.421Z,28.10
2018-06-29T18:10:00.317Z,28.00
2018-06-29T18:12:29.236Z,28.00
2018-06-29T18:14:58.134Z,27.80
2018-06-29T18:17:27.018Z,27.80
2018-06-29T18:19:55.904Z,27.70
2018-06-29T18:22:24.812Z,27.60
2018-06-29T18:24:53.992Z,27.50
2018-06-29T18:27:22.845Z,27.40
2018-06-29T18:29:51.749Z,27.30
2018-06-29T18:32:20.652Z,27.30
2018-06-29T18:34:49.653Z,27.10
2018-06-29T18:40:00.450Z,27.00
2018-06-29T18:42:29.332Z,26.90
2018-06-29T18:45:21.024Z,26.80
2018-06-29T18:47:50.205Z,26.80
2018-06-29T18:50:24.700Z,26.70
2018-06-29T18:52:53.612Z,26.70
2018-06-29T18:55:39.109Z,26.50
2018-06-29T19:12:50.948Z,26.00
2018-06-29T19:15:19.884Z,26.00
2018-06-29T19:17:48.825Z,25.90
2018-06-29T19:20:17.797Z,25.70
2018-06-29T19:22:46.742Z,25.80
2018-06-29T19:25:15.688Z,25.70
2018-06-29T19:27:44.603Z,25.60
2018-06-29T19:30:14.017Z,25.60
2018-06-29T19:32:42.941Z,25.60
2018-06-29T19:35:11.858Z,25.50
2018-06-29T19:37:40.818Z,25.40
2018-06-29T19:40:09.731Z,25.30
2018-06-29T19:42:38.733Z,25.20
2018-06-29T19:45:07.737Z,25.10
2018-06-29T19:47:36.669Z,25.10
2018-06-29T19:50:05.981Z,25.00
2018-06-29T19:52:34.924Z,24.90
2018-06-29T19:55:03.906Z,24.80
2018-06-29T19:57:32.815Z,24.70
2018-06-29T20:00:01.757Z,24.70
2018-06-29T20:02:30.675Z,24.70
2018-06-29T20:04:59.629Z,24.50
2018-06-29T20:07:29.145Z,24.40
2018-06-29T20:09:58.088Z,24.40
2018-06-29T20:12:27.046Z,24.20
2018-06-29T20:14:55.998Z,24.20
2018-06-29T20:17:24.974Z,24.20
2018-06-29T20:19:53.915Z,24.00
2018-06-29T20:22:22.842Z,24.00
2018-06-29T20:24:51.798Z,23.90
2018-06-29T20:27:20.732Z,23.80
2018-06-29T20:29:49.683Z,23.80
2018-06-29T20:32:18.684Z,23.80
2018-06-29T20:34:47.637Z,23.70
2018-06-29T20:37:16.659Z,23.60
2018-06-29T20:39:45.604Z,23.50
2018-06-29T20:42:15.510Z,23.50
2018-06-29T20:44:44.441Z,23.50
2018-06-29T20:47:13.987Z,23.30
2018-06-29T20:49:42.886Z,23.20
2018-06-29T20:52:11.906Z,23.20
2018-06-29T20:54:40.866Z,23.10
2018-06-29T20:57:09.824Z,23.10
2018-06-29T20:59:38.765Z,23.00
2018-06-29T21:02:07.727Z,23.40
2018-06-29T21:04:36.718Z,23.00
2018-06-29T21:07:05.661Z,22.90
2018-06-29T21:09:34.642Z,22.90
2018-06-29T21:12:03.628Z,22.90
2018-06-29T21:14:32.750Z,22.70
2018-06-29T21:17:01.706Z,22.70
2018-06-29T21:19:30.634Z,22.60
2018-06-29T21:21:59.618Z,22.50
2018-06-29T21:24:28.552Z,22.50
2018-06-29T21:26:57.494Z,22.40
2018-06-29T21:29:26.458Z,22.40
2018-06-29T21:34:23.998Z,22.20
2018-06-29T21:36:52.893Z,22.20
2018-06-29T21:39:22.151Z,22.10
2018-06-29T21:41:51.041Z,22.20
2018-06-29T21:44:19.940Z,22.10
2018-06-29T21:46:48.851Z,22.00
2018-06-29T21:49:17.751Z,22.00
2018-06-29T21:51:46.644Z,21.90
2018-06-29T21:54:15.599Z,21.80
2018-06-29T21:56:44.427Z,21.80
2018-06-29T21:59:13.373Z,21.70
2018-06-29T22:01:42.248Z,21.70
2018-06-29T22:04:11.144Z,21.60
2018-06-29T22:06:40.050Z,21.70
2018-06-29T22:09:09.647Z,21.60
2018-06-29T22:11:38.608Z,21.50
2018-06-29T22:14:08.235Z,21.50
2018-06-29T22:16:37.116Z,21.50
2018-06-29T22:19:06.136Z,21.40
2018-06-29T22:21:35.028Z,21.30
2018-06-29T22:24:04.656Z,21.30
2018-06-29T22:26:33.605Z,21.20
2018-06-29T22:29:02.476Z,21.20
2018-06-29T22:34:00.054Z,21.00
2018-06-29T22:38:57.488Z,20.90
2018-06-29T22:41:26.368Z,20.90
2018-06-29T22:43:55.266Z,20.80
2018-06-29T22:46:24.244Z,20.80
2018-06-29T22:48:53.152Z,20.70
2018-06-29T22:51:22.082Z,20.60
2018-06-29T22:53:50.984Z,20.70
2018-06-29T22:56:19.896Z,20.60
2018-06-29T22:58:48.804Z,20.40
2018-06-29T23:01:17.733Z,20.40
2018-06-29T23:03:51.923Z,20.30
2018-06-29T23:06:20.863Z,20.30
2018-06-29T23:11:18.657Z,20.20
2018-06-29T23:13:47.564Z,20.20
2018-06-29T23:16:16.868Z,20.10
2018-06-29T23:18:45.795Z,20.10
2018-06-29T23:21:14.720Z,20.00
2018-06-29T23:23:43.927Z,20.00
2018-06-29T23:26:12.815Z,20.00
2018-06-29T23:28:41.726Z,19.90
2018-06-29T23:31:10.628Z,19.90
2018-06-29T23:33:39.534Z,19.90
2018-06-29T23:36:08.449Z,19.70
2018-06-29T23:38:37.372Z,19.70
2018-06-29T23:41:06.336Z,19.70
2018-06-29T23:43:35.539Z,19.70
2018-06-29T23:46:04.573Z,19.50
2018-06-29T23:48:33.606Z,19.40
2018-06-29T23:51:02.542Z,19.40
2018-06-29T23:53:31.449Z,19.40
2018-06-29T23:56:00.568Z,19.40
2018-06-29T23:58:29.428Z,19.40
